Time;durP1;ratioP1;P1;durP2;ratioP2;P2;SDS_P1;SDS_P2;PMS_P1;PMS_P2;Temp;Humidity;BMP_temperature;BMP_pressure;BME280_temperature;BME280_humidity;BME280_pressure;Samples;Min_cycle;Max_cycle;Signal;HPM_P1;HPM_P2
2023/12/16 00:04:56;;;;;;;12.70;7.60;;;11.20;99.90;;;;;;10367470;28;20243;-80
2023/12/16 00:09:59;;;;;;;13.73;8.00;;;11.80;99.90;;;;;;10367216;28;20306;-79
2023/12/16 00:15:02;;;;;;;11.00;6.00;;;11.50;99.90;;;;;;10367272;28;20240;-80
2023/12/16 00:20:05;;;;;;;11.83;7.23;;;11.30;99.90;;;;;;10367636;28;20270;-80
2023/12/16 00:25:09;;;;;;;10.10;6.30;;;11.60;99.90;;;;;;10367175;28;20301;-80
2023/12/16 00:30:11;;;;;;;11.57;6.03;;;11.60;99.90;;;;;;10367056;28;20277;-80
2023/12/16 00:35:14;;;;;;;19.57;11.00;;;11.70;99.90;;;;;;10371773;28;20286;-80
2023/12/16 00:40:17;;;;;;;10.93;5.57;;;11.10;99.90;;;;;;10374858;28;20309;-80
2023/12/16 00:45:20;;;;;;;19.93;8.10;;;11.60;99.90;;;;;;10375056;28;20235;-80
2023/12/16 00:50:24;;;;;;;10.03;6.07;;;11.60;99.90;;;;;;10374978;28;20279;-80
2023/12/16 00:55:26;;;;;;;12.53;7.33;;;11.90;99.90;;;;;;10374353;28;20223;-80
2023/12/16 01:00:29;;;;;;;9.80;5.70;;;11.70;99.90;;;;;;10374190;28;20251;-79
2023/12/16 01:05:31;;;;;;;18.90;7.93;;;11.70;99.90;;;;;;10373238;28;20265;-80
2023/12/16 01:10:34;;;;;;;10.50;4.83;;;11.70;99.90;;;;;;10374160;28;20636;-79
2023/12/16 01:15:36;;;;;;;38.40;9.53;;;12.10;99.90;;;;;;10395040;28;20253;-80
2023/12/16 01:20:39;;;;;;;20.53;6.30;;;12.50;99.90;;;;;;10408147;28;20221;-79
2023/12/16 01:25:41;;;;;;;25.07;11.30;;;12.10;99.90;;;;;;10377352;28;20303;-79
2023/12/16 01:30:44;;;;;;;29.20;12.50;;;11.90;99.90;;;;;;10372924;28;20308;-80
2023/12/16 01:35:46;;;;;;;16.07;5.53;;;11.60;99.90;;;;;;10373216;28;20227;-80
2023/12/16 01:40:49;;;;;;;18.73;7.77;;;11.40;99.90;;;;;;10393857;28;20230;-80
2023/12/16 01:46:03;;;;;;;20.13;9.10;;;11.50;99.90;;;;;;10412166;28;20242;-80
2023/12/16 01:51:06;;;;;;;23.47;8.23;;;11.70;99.90;;;;;;10412978;28;20285;-80
2023/12/16 01:56:09;;;;;;;29.57;7.30;;;11.80;99.90;;;;;;10351456;28;20653;-80
2023/12/16 02:01:12;;;;;;;13.23;5.07;;;12.10;99.90;;;;;;10390010;28;20264;-80
2023/12/16 02:06:15;;;;;;;4.20;2.90;;;11.70;99.90;;;;;;10412621;28;20247;-80
2023/12/16 02:11:17;;;;;;;11.60;4.43;;;11.80;99.90;;;;;;10412241;28;20266;-80
2023/12/16 02:16:20;;;;;;;21.43;9.63;;;12.20;99.90;;;;;;10359919;28;20233;-80
2023/12/16 02:21:22;;;;;;;17.00;5.60;;;12.40;99.90;;;;;;10372137;28;20230;-80
2023/12/16 02:26:25;;;;;;;11.93;4.50;;;12.60;99.90;;;;;;10396310;28;20612;-79
2023/12/16 02:31:28;;;;;;;23.27;8.77;;;12.70;99.90;;;;;;10379239;28;20291;-80
2023/12/16 02:36:30;;;;;;;24.63;10.60;;;12.50;99.90;;;;;;10369808;28;20232;-80
2023/12/16 02:41:33;;;;;;;19.03;8.37;;;12.30;99.90;;;;;;10391957;28;20266;-80
2023/12/16 02:46:35;;;;;;;18.33;8.10;;;12.20;99.90;;;;;;10351725;28;20273;-80
2023/12/16 02:51:38;;;;;;;31.47;11.10;;;12.20;99.90;;;;;;10366756;28;20252;-80
2023/12/16 02:56:40;;;;;;;12.43;6.60;;;12.20;99.90;;;;;;10368507;28;20287;-80
2023/12/16 03:01:43;;;;;;;18.30;7.90;;;12.00;99.90;;;;;;10395963;28;20240;-80
2023/12/16 03:06:46;;;;;;;21.53;9.80;;;11.60;99.90;;;;;;10410498;28;20247;-80
2023/12/16 03:11:49;;;;;;;26.03;8.30;;;11.70;99.90;;;;;;10362832;28;20249;-80
2023/12/16 03:16:52;;;;;;;13.83;7.13;;;11.70;99.90;;;;;;10328143;28;20298;-80
2023/12/16 03:21:54;;;;;;;19.33;8.83;;;11.90;99.90;;;;;;10396085;28;20235;-80
2023/12/16 03:26:57;;;;;;;13.90;7.47;;;12.00;99.90;;;;;;10385708;28;20265;-80
2023/12/16 03:31:59;;;;;;;15.67;8.17;;;11.90;99.90;;;;;;10407619;28;20259;-80
2023/12/16 03:37:02;;;;;;;14.60;5.67;;;11.80;99.90;;;;;;10392366;28;20638;-80
2023/12/16 03:42:04;;;;;;;20.33;9.57;;;11.90;99.90;;;;;;10350605;28;20255;-80
2023/12/16 03:47:07;;;;;;;13.53;6.57;;;11.70;99.90;;;;;;10326747;28;20327;-80
2023/12/16 03:52:11;;;;;;;24.47;12.33;;;11.70;99.90;;;;;;10379622;28;20248;-80
2023/12/16 03:57:15;;;;;;;10.57;4.43;;;11.50;99.90;;;;;;10367586;28;20686;-79
2023/12/16 04:02:18;;;;;;;12.37;6.40;;;11.50;99.90;;;;;;10390617;28;20709;-80
2023/12/16 04:07:20;;;;;;;14.03;7.07;;;11.70;99.90;;;;;;10327455;28;20236;-80
2023/12/16 04:12:23;;;;;;;13.73;6.23;;;11.40;99.90;;;;;;10327286;28;20910;-79
2023/12/16 04:17:25;;;;;;;9.27;5.50;;;11.40;99.90;;;;;;10363787;28;20295;-80
2023/12/16 04:22:28;;;;;;;16.37;8.67;;;11.40;99.90;;;;;;10382537;28;20967;-80
2023/12/16 04:27:30;;;;;;;7.57;4.87;;;11.10;99.90;;;;;;10370611;28;20784;-80
2023/12/16 04:32:33;;;;;;;29.13;12.90;;;10.30;99.90;;;;;;10378980;28;20731;-80
2023/12/16 04:37:36;;;;;;;31.17;14.63;;;10.20;99.90;;;;;;10371280;28;20253;-80
2023/12/16 04:42:41;;;;;;;16.00;8.40;;;10.10;99.90;;;;;;10407136;28;20239;-79
2023/12/16 04:47:43;;;;;;;8.67;5.10;;;10.30;99.90;;;;;;10406067;28;20313;-80
2023/12/16 04:52:47;;;;;;;24.70;11.60;;;10.60;99.90;;;;;;10407231;28;20251;-80
2023/12/16 04:57:49;;;;;;;15.50;8.30;;;10.70;99.90;;;;;;10406847;28;20235;-80
2023/12/16 05:02:51;;;;;;;10.53;5.47;;;10.70;99.90;;;;;;10398112;28;20730;-80
2023/12/16 05:07:54;;;;;;;24.17;12.13;;;10.90;99.90;;;;;;10382142;28;20208;-80
2023/12/16 05:12:56;;;;;;;21.80;11.33;;;10.50;99.90;;;;;;10363494;28;20325;-80
2023/12/16 05:17:59;;;;;;;15.33;9.00;;;10.30;99.90;;;;;;10366078;28;20286;-80
2023/12/16 05:23:02;;;;;;;14.57;7.10;;;10.60;99.90;;;;;;10372249;28;20923;-80
2023/12/16 05:28:05;;;;;;;14.17;8.97;;;10.10;99.90;;;;;;10334741;28;20303;-80
2023/12/16 05:33:07;;;;;;;14.43;8.50;;;10.10;99.90;;;;;;10349204;28;20321;-80
2023/12/16 05:38:10;;;;;;;21.90;12.07;;;10.10;99.90;;;;;;10413452;28;20234;-80
2023/12/16 05:43:13;;;;;;;26.57;12.90;;;10.30;99.90;;;;;;10387440;28;20308;-80
2023/12/16 05:48:15;;;;;;;8.20;5.47;;;10.40;99.90;;;;;;10396502;28;20763;-80
2023/12/16 05:53:18;;;;;;;15.47;8.67;;;10.60;99.90;;;;;;10398036;28;20729;-80
2023/12/16 05:58:20;;;;;;;12.70;6.40;;;10.30;99.90;;;;;;10412596;28;20231;-80
2023/12/16 06:03:24;;;;;;;22.67;10.67;;;10.60;99.90;;;;;;10359121;28;20233;-81
2023/12/16 06:08:27;;;;;;;15.23;8.60;;;10.90;99.90;;;;;;10359285;28;20234;-80
2023/12/16 06:13:29;;;;;;;14.73;7.60;;;11.20;99.90;;;;;;10385525;28;20866;-80
2023/12/16 06:18:32;;;;;;;13.60;6.50;;;11.30;99.90;;;;;;10381860;28;20286;-80
2023/12/16 06:23:35;;;;;;;20.93;11.17;;;11.20;99.90;;;;;;10370888;28;20236;-80
2023/12/16 06:28:37;;;;;;;15.97;7.13;;;11.30;99.90;;;;;;10366380;28;20235;-80
2023/12/16 06:33:40;;;;;;;8.90;3.70;;;11.30;99.90;;;;;;10369413;28;20633;-80
2023/12/16 06:38:42;;;;;;;16.17;8.57;;;11.40;99.90;;;;;;10370961;28;20633;-81
2023/12/16 06:43:45;;;;;;;6.50;4.37;;;11.40;99.90;;;;;;10370238;28;20243;-81
2023/12/16 06:48:47;;;;;;;21.13;9.73;;;11.60;99.90;;;;;;10366339;28;20285;-81
2023/12/16 06:53:50;;;;;;;15.87;9.20;;;11.70;99.90;;;;;;10367776;28;20287;-80
2023/12/16 06:58:52;;;;;;;8.33;5.40;;;10.90;99.90;;;;;;10369967;28;20250;-80
2023/12/16 07:03:55;;;;;;;12.57;6.13;;;11.10;99.90;;;;;;10410104;28;20222;-81
2023/12/16 07:08:57;;;;;;;12.20;5.57;;;11.60;99.90;;;;;;10372801;28;20228;-81
2023/12/16 07:14:00;;;;;;;8.87;5.90;;;11.80;99.90;;;;;;10388585;28;20277;-81
2023/12/16 07:19:02;;;;;;;8.23;4.20;;;11.70;99.90;;;;;;10387140;28;20227;-80
2023/12/16 07:24:05;;;;;;;7.73;5.30;;;11.60;99.90;;;;;;10410317;28;20297;-81
2023/12/16 07:29:08;;;;;;;11.60;7.87;;;11.70;99.90;;;;;;10394880;28;20302;-81
2023/12/16 07:34:10;;;;;;;11.00;6.37;;;11.70;99.90;;;;;;10328833;28;20683;-80
2023/12/16 07:39:13;;;;;;;14.23;7.50;;;11.70;99.90;;;;;;10362271;28;20270;-80
2023/12/16 07:44:15;;;;;;;9.27;5.67;;;11.60;99.90;;;;;;10338281;28;20236;-80
2023/12/16 07:49:22;;;;;;;7.47;4.40;;;11.60;99.90;;;;;;10395378;28;20251;-80
2023/12/16 07:54:24;;;;;;;6.87;3.70;;;11.80;99.90;;;;;;10407911;28;20251;-80
2023/12/16 07:59:27;;;;;;;3.93;3.07;;;11.70;99.90;;;;;;10400111;28;20304;-81
2023/12/16 08:04:29;;;;;;;12.53;6.90;;;11.50;99.90;;;;;;10408251;28;20616;-80
2023/12/16 08:09:32;;;;;;;9.10;3.63;;;11.80;99.90;;;;;;10371168;28;20298;-80
2023/12/16 08:14:35;;;;;;;8.87;4.50;;;11.80;99.90;;;;;;10367191;28;20255;-79
2023/12/16 08:19:37;;;;;;;6.60;5.27;;;11.90;99.90;;;;;;10367999;28;20236;-80
2023/12/16 08:24:41;;;;;;;8.53;5.27;;;11.60;99.90;;;;;;10368716;28;20297;-80
2023/12/16 08:29:46;;;;;;;7.57;5.63;;;11.60;99.90;;;;;;10386949;28;20622;-80
2023/12/16 08:34:49;;;;;;;6.07;3.67;;;11.50;99.90;;;;;;10368928;28;20625;-79
2023/12/16 08:39:51;;;;;;;4.70;3.77;;;11.20;99.90;;;;;;10328195;28;20209;-80
2023/12/16 08:44:54;;;;;;;7.53;4.73;;;11.50;99.90;;;;;;10328271;28;20240;-80
2023/12/16 08:49:56;;;;;;;7.17;5.23;;;11.60;99.90;;;;;;10358483;28;20849;-80
2023/12/16 08:54:59;;;;;;;5.33;4.20;;;11.70;99.90;;;;;;10355270;28;20252;-80
2023/12/16 09:00:02;;;;;;;9.47;5.83;;;11.80;99.90;;;;;;10335929;28;20201;-80
2023/12/16 09:05:04;;;;;;;9.80;4.63;;;12.20;99.90;;;;;;10336914;28;20765;-80
2023/12/16 09:10:07;;;;;;;9.30;5.27;;;12.00;99.90;;;;;;10383079;28;20269;-80
2023/12/16 09:15:10;;;;;;;4.30;1.40;;;12.30;99.90;;;;;;10422518;28;20246;-80
2023/12/16 09:20:16;;;;;;;8.10;3.33;;;12.00;99.90;;;;;;10441059;28;20218;-80
2023/12/16 09:25:19;;;;;;;10.57;6.63;;;12.30;99.90;;;;;;10415986;28;20197;-80
2023/12/16 09:30:22;;;;;;;4.53;3.33;;;12.80;99.90;;;;;;10458482;28;20246;-81
2023/12/16 09:35:25;;;;;;;9.17;4.07;;;12.80;99.90;;;;;;10376668;28;20205;-82
2023/12/16 09:40:27;;;;;;;7.23;4.30;;;12.90;99.90;;;;;;10381755;28;20204;-80
2023/12/16 09:45:30;;;;;;;12.23;5.00;;;12.80;99.90;;;;;;10417654;28;20203;-80
2023/12/16 09:50:35;;;;;;;6.73;3.70;;;12.60;99.90;;;;;;10456423;28;20254;-80
2023/12/16 09:55:38;;;;;;;4.23;3.40;;;12.60;99.90;;;;;;10408521;28;20388;-80
2023/12/16 10:00:45;;;;;;;3.03;2.33;;;12.70;99.90;;;;;;10424887;28;20208;-79
2023/12/16 10:05:50;;;;;;;5.30;3.33;;;12.90;99.90;;;;;;10440275;28;20195;-79
2023/12/16 10:10:59;;;;;;;15.20;7.73;;;12.80;99.90;;;;;;10415375;28;20168;-80
2023/12/16 10:16:17;;;;;;;5.80;4.23;;;12.70;99.90;;;;;;10403013;28;20208;-80
2023/12/16 10:21:28;;;;;;;8.50;4.47;;;12.90;99.90;;;;;;10397440;28;20703;-79
2023/12/16 10:26:35;;;;;;;10.17;5.53;;;12.70;99.90;;;;;;10409138;28;20233;-79
2023/12/16 10:31:39;;;;;;;7.33;3.83;;;13.00;99.90;;;;;;10375600;28;20221;-80
2023/12/16 10:36:41;;;;;;;8.17;3.97;;;13.10;99.90;;;;;;10397992;28;20270;-79
2023/12/16 10:41:44;;;;;;;5.93;4.20;;;13.40;99.90;;;;;;10456536;28;20191;-79
2023/12/16 10:46:57;;;;;;;5.73;4.33;;;13.40;99.90;;;;;;10448871;28;20242;-79
2023/12/16 10:52:09;;;;;;;5.57;3.47;;;13.50;99.90;;;;;;10374827;28;20243;-80
2023/12/16 10:57:15;;;;;;;7.80;4.77;;;13.30;99.90;;;;;;10395805;28;20580;-78
2023/12/16 11:02:23;;;;;;;4.13;3.17;;;13.50;99.90;;;;;;10435249;28;20204;-79
2023/12/16 11:07:33;;;;;;;5.83;3.27;;;13.50;99.90;;;;;;10366510;28;20562;-79
2023/12/16 11:12:37;;;;;;;8.53;3.57;;;13.40;99.90;;;;;;10377109;28;20228;-79
2023/12/16 11:17:49;;;;;;;1.97;1.63;;;13.30;99.90;;;;;;10405814;28;20230;-78
2023/12/16 11:22:53;;;;;;;5.03;2.33;;;13.20;99.90;;;;;;10424296;28;20215;-79
2023/12/16 11:27:56;;;;;;;2.83;2.43;;;13.40;99.90;;;;;;10402113;28;20298;-79
2023/12/16 11:32:59;;;;;;;4.30;2.57;;;13.50;99.90;;;;;;10400830;28;20220;-80
2023/12/16 11:38:02;;;;;;;6.00;2.47;;;13.90;99.90;;;;;;10438362;28;20200;-79
2023/12/16 11:43:05;;;;;;;9.37;4.97;;;13.90;99.90;;;;;;10402061;28;20239;-78
2023/12/16 11:48:10;;;;;;;5.57;2.87;;;13.60;99.90;;;;;;10406353;28;20239;-80
2023/12/16 11:53:17;;;;;;;7.50;4.60;;;13.30;99.90;;;;;;10410264;28;20240;-79
2023/12/16 11:58:20;;;;;;;10.07;4.23;;;13.40;99.90;;;;;;10407744;28;20259;-80
2023/12/16 12:03:23;;;;;;;4.03;2.90;;;13.70;99.90;;;;;;10397593;28;20200;-79
2023/12/16 12:08:26;;;;;;;3.97;2.37;;;13.70;99.90;;;;;;10377938;28;20259;-79
2023/12/16 12:13:28;;;;;;;3.17;2.30;;;13.70;99.90;;;;;;10377157;28;20216;-80
2023/12/16 12:18:31;;;;;;;9.37;4.73;;;13.60;99.90;;;;;;10369690;28;20205;-80
2023/12/16 12:23:36;;;;;;;9.27;5.00;;;13.60;99.90;;;;;;10362930;28;20200;-79
2023/12/16 12:28:39;;;;;;;5.77;3.83;;;13.40;99.90;;;;;;10414484;28;20215;-79
2023/12/16 12:33:42;;;;;;;14.53;6.77;;;13.50;99.90;;;;;;10422463;28;20246;-79
2023/12/16 12:38:45;;;;;;;16.97;7.93;;;13.50;99.90;;;;;;10421521;28;20200;-79
2023/12/16 12:43:48;;;;;;;23.63;12.33;;;13.50;99.90;;;;;;10059460;28;9999941;-79
2023/12/16 12:48:55;;;;;;;9.80;5.10;;;11.80;99.90;;;;;;10378993;28;20235;-79
2023/12/16 12:53:58;;;;;;;9.00;5.17;;;12.10;99.90;;;;;;10374560;28;20299;-79
2023/12/16 12:59:04;;;;;;;11.70;7.27;;;12.90;99.90;;;;;;10339862;28;20209;-79
2023/12/16 13:04:26;;;;;;;9.37;7.53;;;13.20;99.90;;;;;;10370476;28;20199;-79
2023/12/16 13:09:29;;;;;;;8.10;4.63;;;13.20;99.90;;;;;;10402642;28;20246;-79
2023/12/16 13:14:32;;;;;;;11.27;6.77;;;13.50;99.90;;;;;;10370102;28;20215;-80
2023/12/16 13:19:35;;;;;;;7.00;3.90;;;13.60;99.90;;;;;;10419868;28;20200;-79
2023/12/16 13:24:37;;;;;;;9.67;6.10;;;13.50;99.90;;;;;;10417417;28;20215;-79
2023/12/16 13:29:40;;;;;;;7.67;4.93;;;13.50;99.90;;;;;;10381425;28;20219;-80
2023/12/16 13:34:42;;;;;;;12.43;5.60;;;13.60;99.90;;;;;;10365495;28;20693;-80
2023/12/16 13:39:45;;;;;;;7.83;4.97;;;13.70;99.90;;;;;;10389978;28;20207;-80
2023/12/16 13:44:48;;;;;;;9.40;4.60;;;13.60;99.90;;;;;;10416357;28;20203;-79
2023/12/16 13:49:50;;;;;;;5.77;3.40;;;13.70;99.90;;;;;;10415682;28;20645;-79
2023/12/16 13:54:53;;;;;;;13.10;7.73;;;13.50;99.90;;;;;;10418255;28;20215;-80
2023/12/16 13:59:57;;;;;;;11.40;5.77;;;13.40;99.90;;;;;;10404434;28;20254;-81
2023/12/16 14:05:01;;;;;;;6.80;3.17;;;13.60;99.90;;;;;;10369157;28;20197;-79
2023/12/16 14:10:05;;;;;;;11.00;6.43;;;13.60;99.90;;;;;;10346850;28;20219;-79
2023/12/16 14:15:08;;;;;;;10.00;4.93;;;13.40;99.90;;;;;;10065975;28;10000109;-79
2023/12/16 14:20:11;;;;;;;12.20;6.00;;;13.30;99.90;;;;;;10353310;28;20212;-80
2023/12/16 14:25:14;;;;;;;10.73;6.30;;;13.30;99.90;;;;;;10333090;28;20718;-79
2023/12/16 14:30:17;;;;;;;4.17;2.37;;;13.20;99.90;;;;;;10337825;28;20267;-80
2023/12/16 14:35:20;;;;;;;10.37;5.77;;;13.20;99.90;;;;;;10373108;28;20235;-81
2023/12/16 14:40:23;;;;;;;13.43;7.70;;;13.10;99.90;;;;;;10348254;28;20205;-80
2023/12/16 14:45:26;;;;;;;12.20;6.27;;;12.60;99.90;;;;;;10358887;28;20216;-81
2023/12/16 14:50:28;;;;;;;10.53;6.63;;;12.20;99.90;;;;;;10380152;28;20224;-80
2023/12/16 14:55:31;;;;;;;5.37;3.00;;;12.10;99.90;;;;;;10407246;28;20576;-80
2023/12/16 15:00:34;;;;;;;10.50;3.40;;;11.70;99.90;;;;;;10413409;28;20203;-79
2023/12/16 15:05:37;;;;;;;4.57;2.70;;;12.20;99.90;;;;;;10413875;28;20238;-80
2023/12/16 15:10:39;;;;;;;4.87;3.27;;;12.60;99.90;;;;;;10375285;28;20227;-80
2023/12/16 15:15:44;;;;;;;15.40;6.63;;;12.90;99.90;;;;;;10372703;28;20582;-80
2023/12/16 15:20:47;;;;;;;12.10;6.87;;;12.50;99.90;;;;;;10356112;28;20228;-81
2023/12/16 15:25:49;;;;;;;9.47;4.50;;;13.10;99.90;;;;;;10332707;28;20574;-80
2023/12/16 15:30:53;;;;;;;11.40;7.23;;;12.90;99.90;;;;;;10380259;28;20211;-80
2023/12/16 15:35:56;;;;;;;9.13;4.03;;;12.10;99.90;;;;;;10412454;28;20235;-79
2023/12/16 15:40:58;;;;;;;13.43;5.47;;;12.40;99.90;;;;;;10410612;28;20238;-79
2023/12/16 15:46:01;;;;;;;6.93;4.33;;;12.10;99.90;;;;;;10409286;28;20337;-79
2023/12/16 15:51:04;;;;;;;10.50;5.47;;;12.30;99.90;;;;;;10393634;28;20196;-80
2023/12/16 15:56:07;;;;;;;12.33;6.13;;;12.50;99.90;;;;;;10372293;28;20278;-79
2023/12/16 16:01:09;;;;;;;11.83;4.30;;;12.70;99.90;;;;;;10372582;28;20604;-79
2023/12/16 16:06:12;;;;;;;11.80;4.30;;;12.50;99.90;;;;;;10370166;28;20267;-79
2023/12/16 16:11:14;;;;;;;8.50;4.73;;;12.70;99.90;;;;;;10372117;28;20196;-80
2023/12/16 16:16:17;;;;;;;11.20;5.40;;;13.00;99.90;;;;;;10372931;28;20281;-79
2023/12/16 16:21:20;;;;;;;11.53;5.27;;;12.90;99.90;;;;;;10371879;28;20266;-79
2023/12/16 16:26:25;;;;;;;11.67;5.80;;;12.90;99.90;;;;;;10370013;28;20250;-79
2023/12/16 16:31:35;;;;;;;7.17;4.63;;;13.10;99.90;;;;;;10358166;28;20263;-79
2023/12/16 16:36:38;;;;;;;12.33;5.97;;;13.00;99.90;;;;;;10368313;28;20278;-80
2023/12/16 16:41:40;;;;;;;3.50;2.53;;;13.00;99.90;;;;;;10367140;28;20689;-80
2023/12/16 16:46:45;;;;;;;7.63;4.17;;;12.60;99.90;;;;;;10371995;28;20266;-80
2023/12/16 16:51:47;;;;;;;11.97;6.73;;;12.80;99.90;;;;;;10366484;28;20302;-80
2023/12/16 16:56:49;;;;;;;14.07;7.27;;;13.10;99.90;;;;;;10368067;28;20252;-80
2023/12/16 17:01:52;;;;;;;20.67;8.60;;;13.00;99.90;;;;;;10354726;28;20685;-79
2023/12/16 17:06:55;;;;;;;11.73;6.30;;;12.10;99.90;;;;;;10335168;28;20256;-80
2023/12/16 17:11:58;;;;;;;10.03;5.17;;;12.40;99.90;;;;;;10325784;28;20268;-79
2023/12/16 17:17:00;;;;;;;7.00;3.13;;;12.80;99.90;;;;;;10363295;28;20316;-80
2023/12/16 17:22:03;;;;;;;16.17;6.60;;;13.00;99.90;;;;;;10374413;28;20317;-80
2023/12/16 17:27:06;;;;;;;9.40;5.00;;;13.10;99.90;;;;;;10335811;28;20305;-80
2023/12/16 17:32:10;;;;;;;12.83;6.20;;;13.20;99.90;;;;;;10355074;28;20236;-80
2023/12/16 17:37:13;;;;;;;6.30;3.37;;;13.10;99.90;;;;;;10344622;28;20248;-80
2023/12/16 17:42:15;;;;;;;12.97;5.80;;;13.10;99.90;;;;;;10332542;28;20286;-80
2023/12/16 17:47:18;;;;;;;23.40;5.03;;;13.20;99.90;;;;;;10368034;28;20267;-79
2023/12/16 17:52:20;;;;;;;9.17;3.57;;;12.90;99.90;;;;;;10357047;28;20238;-81
2023/12/16 17:57:23;;;;;;;8.73;3.60;;;12.90;99.90;;;;;;10360995;28;20261;-80
2023/12/16 18:02:25;;;;;;;9.57;4.80;;;12.80;99.90;;;;;;10342978;28;20231;-80
2023/12/16 18:07:28;;;;;;;12.27;4.77;;;13.00;99.90;;;;;;10400234;28;20238;-80
2023/12/16 18:12:30;;;;;;;11.73;4.87;;;13.10;99.90;;;;;;10386476;28;20688;-80
2023/12/16 18:17:33;;;;;;;12.73;5.57;;;13.00;99.90;;;;;;10373846;28;20325;-80
2023/12/16 18:22:36;;;;;;;5.13;3.30;;;13.20;99.90;;;;;;10366357;28;20282;-80
2023/12/16 18:27:38;;;;;;;9.63;4.07;;;13.40;99.90;;;;;;10323873;28;20274;-81
2023/12/16 18:32:41;;;;;;;5.13;2.70;;;13.30;99.90;;;;;;10007581;28;10000288;-80
2023/12/16 18:37:44;;;;;;;8.83;3.63;;;13.20;99.90;;;;;;10355229;28;20228;-80
2023/12/16 18:42:46;;;;;;;11.27;5.33;;;13.30;99.90;;;;;;10327134;28;20229;-80
2023/12/16 18:47:49;;;;;;;8.03;3.47;;;13.20;99.90;;;;;;10363589;28;20329;-80
2023/12/16 18:52:52;;;;;;;9.83;4.30;;;13.10;99.90;;;;;;10380071;28;20228;-81
2023/12/16 18:57:54;;;;;;;7.47;2.63;;;13.10;99.90;;;;;;10359982;28;20267;-81
2023/12/16 19:02:57;;;;;;;3.50;2.50;;;13.30;99.90;;;;;;10367284;28;20243;-80
2023/12/16 19:07:59;;;;;;;5.93;3.17;;;13.50;99.90;;;;;;10364723;28;20236;-80
2023/12/16 19:13:02;;;;;;;16.87;4.53;;;13.50;99.90;;;;;;10366022;28;20597;-80
2023/12/16 19:18:04;;;;;;;6.70;4.20;;;13.30;99.90;;;;;;10396910;28;20240;-80
2023/12/16 19:23:07;;;;;;;7.40;3.80;;;13.40;99.90;;;;;;10377957;28;20231;-80
2023/12/16 19:28:10;;;;;;;6.53;3.00;;;13.40;99.90;;;;;;10348443;28;20283;-80
2023/12/16 19:33:12;;;;;;;7.83;3.70;;;13.20;99.90;;;;;;10330163;28;20306;-80
2023/12/16 19:38:15;;;;;;;10.73;3.60;;;13.30;99.90;;;;;;10363656;28;20677;-80
2023/12/16 19:43:17;;;;;;;7.10;2.93;;;13.30;99.90;;;;;;10332828;28;20236;-81
2023/12/16 19:48:20;;;;;;;4.63;2.90;;;13.40;99.90;;;;;;10361426;28;20264;-81
2023/12/16 19:53:22;;;;;;;6.40;3.60;;;13.40;99.90;;;;;;10366673;28;20252;-80
2023/12/16 19:58:25;;;;;;;3.40;2.47;;;13.50;99.90;;;;;;10378570;28;20231;-80
2023/12/16 20:03:27;;;;;;;7.57;3.87;;;13.30;99.90;;;;;;10392814;28;20673;-80
2023/12/16 20:08:31;;;;;;;2.00;1.73;;;13.40;99.90;;;;;;10378442;28;20240;-80
2023/12/16 20:13:34;;;;;;;5.77;3.90;;;13.50;99.90;;;;;;10379935;28;20315;-80
2023/12/16 20:18:37;;;;;;;6.97;3.77;;;13.40;99.90;;;;;;10396196;28;20275;-80
2023/12/16 20:23:40;;;;;;;6.23;3.77;;;13.30;99.90;;;;;;10365360;28;20239;-80
2023/12/16 20:28:43;;;;;;;3.27;2.27;;;13.00;99.90;;;;;;10366525;28;20240;-80
2023/12/16 20:33:46;;;;;;;8.90;3.90;;;13.30;99.90;;;;;;10345623;28;20255;-80
2023/12/16 20:44:14;;;;;;;9.43;4.60;;;13.00;99.90;;;;;;10324242;28;20275;-80
2023/12/16 20:49:17;;;;;;;8.97;4.47;;;12.80;99.90;;;;;;10324567;28;20268;-80
2023/12/16 20:54:20;;;;;;;8.77;3.40;;;12.90;99.90;;;;;;10336723;28;20312;-80
2023/12/16 20:59:23;;;;;;;5.00;2.60;;;13.00;99.90;;;;;;10333608;28;20236;-80
2023/12/16 21:04:28;;;;;;;9.70;3.13;;;12.90;99.90;;;;;;9993413;28;10000152;-80
2023/12/16 21:09:30;;;;;;;4.13;2.53;;;13.00;99.90;;;;;;10343014;28;20231;-80
2023/12/16 21:14:33;;;;;;;5.93;2.60;;;13.10;99.90;;;;;;10388114;28;20298;-79
2023/12/16 21:19:36;;;;;;;7.30;3.57;;;13.00;99.90;;;;;;10371312;28;20236;-80
2023/12/16 21:24:39;;;;;;;6.90;4.43;;;12.90;99.90;;;;;;10354608;28;20642;-80
2023/12/16 21:29:42;;;;;;;11.30;5.47;;;12.80;99.90;;;;;;10357664;28;20236;-79
2023/12/16 21:34:45;;;;;;;2.57;1.93;;;12.70;99.90;;;;;;10353267;28;20721;-80
2023/12/16 21:39:48;;;;;;;8.70;4.03;;;12.90;99.90;;;;;;10012745;28;9999907;-80
2023/12/16 21:44:50;;;;;;;7.60;4.10;;;13.00;99.90;;;;;;10355276;28;20297;-80
2023/12/16 21:49:53;;;;;;;10.47;4.93;;;13.10;99.90;;;;;;10367313;28;20259;-81
2023/12/16 21:54:56;;;;;;;2.40;1.47;;;13.20;99.90;;;;;;10367819;28;20717;-80
2023/12/16 21:59:58;;;;;;;7.27;4.43;;;13.30;99.90;;;;;;10378944;28;20281;-81
2023/12/16 22:05:01;;;;;;;6.03;4.20;;;13.30;99.90;;;;;;10408973;28;20628;-80
2023/12/16 22:10:04;;;;;;;4.33;2.30;;;13.40;99.90;;;;;;10409609;28;20239;-78
2023/12/16 22:15:07;;;;;;;3.60;2.50;;;13.10;99.90;;;;;;10407103;28;20740;-79
2023/12/16 22:20:10;;;;;;;6.03;2.87;;;13.30;99.90;;;;;;10376393;28;20289;-81
2023/12/16 22:25:13;;;;;;;5.47;3.67;;;13.60;99.90;;;;;;10401461;28;20630;-80
2023/12/16 22:30:15;;;;;;;6.67;3.27;;;13.70;99.90;;;;;;10339000;28;20269;-80
2023/12/16 22:35:18;;;;;;;4.23;2.63;;;13.50;99.90;;;;;;10378174;28;20259;-79
2023/12/16 22:40:22;;;;;;;2.27;1.87;;;13.70;99.90;;;;;;10353153;28;20229;-79
2023/12/16 22:45:25;;;;;;;3.87;3.20;;;13.60;99.90;;;;;;10345361;28;20267;-80
2023/12/16 22:50:28;;;;;;;7.77;4.17;;;13.40;99.90;;;;;;10329413;28;20252;-79
2023/12/16 22:55:32;;;;;;;4.07;2.93;;;13.40;99.90;;;;;;10356020;28;20841;-79
2023/12/16 23:00:35;;;;;;;4.73;3.30;;;13.30;99.90;;;;;;10347196;28;20299;-79
2023/12/16 23:05:39;;;;;;;5.57;3.37;;;13.40;99.90;;;;;;10362452;28;20231;-80
2023/12/16 23:10:42;;;;;;;3.67;3.00;;;13.20;99.90;;;;;;10347992;28;20633;-79
2023/12/16 23:15:45;;;;;;;7.40;2.83;;;13.30;99.90;;;;;;10354182;28;20309;-80
2023/12/16 23:20:47;;;;;;;7.23;3.33;;;13.30;99.90;;;;;;10362933;28;20299;-80
2023/12/16 23:25:50;;;;;;;3.40;2.23;;;13.40;99.90;;;;;;10362477;28;20606;-80
2023/12/16 23:30:54;;;;;;;5.23;3.80;;;13.50;99.90;;;;;;10346897;28;20251;-80
2023/12/16 23:36:10;;;;;;;2.97;2.03;;;13.60;99.90;;;;;;10379037;28;20387;-80
2023/12/16 23:41:20;;;;;;;5.77;3.13;;;13.50;99.90;;;;;;10343079;28;20227;-80
2023/12/16 23:46:23;;;;;;;6.83;3.83;;;13.40;99.90;;;;;;10395242;28;20301;-80
2023/12/16 23:51:25;;;;;;;5.83;3.87;;;13.30;99.90;;;;;;10364695;28;20376;-80
2023/12/16 23:56:28;;;;;;;5.33;3.43;;;13.40;99.90;;;;;;10370746;28;21032;-81
